sensor_id;sensor_type;location;lat;lon;timestamp;P1;durP1;ratioP1;P2;durP2;ratioP2
35243;SDS011;37916;52.160;21.066;2024-03-29T00:07:12;8.05;;;4.40;;
35243;SDS011;37916;52.160;21.066;2024-03-29T00:17:13;9.93;;;4.13;;
35243;SDS011;37916;52.160;21.066;2024-03-29T00:27:15;8.35;;;3.70;;
35243;SDS011;37916;52.160;21.066;2024-03-29T00:37:16;7.30;;;3.83;;
35243;SDS011;37916;52.160;21.066;2024-03-29T00:47:17;8.85;;;3.97;;
35243;SDS011;37916;52.160;21.066;2024-03-29T00:57:18;8.70;;;4.25;;
35243;SDS011;37916;52.160;21.066;2024-03-29T01:07:19;8.27;;;4.25;;
35243;SDS011;37916;52.160;21.066;2024-03-29T01:27:40;3.92;;;2.17;;
35243;SDS011;37916;52.160;21.066;2024-03-29T01:37:41;4.18;;;2.08;;
35243;SDS011;37916;52.160;21.066;2024-03-29T01:47:42;3.00;;;2.00;;
35243;SDS011;37916;52.160;21.066;2024-03-29T01:57:43;3.78;;;2.55;;
35243;SDS011;37916;52.160;21.066;2024-03-29T02:07:45;2.80;;;1.88;;
35243;SDS011;37916;52.160;21.066;2024-03-29T02:17:48;3.93;;;1.30;;
35243;SDS011;37916;52.160;21.066;2024-03-29T02:27:51;3.03;;;1.10;;
35243;SDS011;37916;52.160;21.066;2024-03-29T02:37:52;2.33;;;1.20;;
35243;SDS011;37916;52.160;21.066;2024-03-29T02:47:54;2.78;;;1.60;;
35243;SDS011;37916;52.160;21.066;2024-03-29T02:57:55;3.42;;;1.33;;
35243;SDS011;37916;52.160;21.066;2024-03-29T03:07:56;3.45;;;1.20;;
35243;SDS011;37916;52.160;21.066;2024-03-29T03:18:15;2.83;;;1.30;;
35243;SDS011;37916;52.160;21.066;2024-03-29T03:28:16;2.67;;;1.27;;
35243;SDS011;37916;52.160;21.066;2024-03-29T03:38:17;3.75;;;1.50;;
35243;SDS011;37916;52.160;21.066;2024-03-29T03:48:18;2.67;;;1.40;;
35243;SDS011;37916;52.160;21.066;2024-03-29T03:58:19;3.35;;;1.65;;
35243;SDS011;37916;52.160;21.066;2024-03-29T04:08:20;2.95;;;1.40;;
35243;SDS011;37916;52.160;21.066;2024-03-29T04:18:21;2.83;;;1.30;;
35243;SDS011;37916;52.160;21.066;2024-03-29T04:28:23;3.55;;;1.50;;
35243;SDS011;37916;52.160;21.066;2024-03-29T04:38:24;2.53;;;1.63;;
35243;SDS011;37916;52.160;21.066;2024-03-29T04:48:25;3.08;;;1.50;;
35243;SDS011;37916;52.160;21.066;2024-03-29T04:58:26;4.25;;;1.67;;
35243;SDS011;37916;52.160;21.066;2024-03-29T05:08:28;2.53;;;1.10;;
35243;SDS011;37916;52.160;21.066;2024-03-29T05:18:29;3.38;;;1.50;;
35243;SDS011;37916;52.160;21.066;2024-03-29T05:28:30;2.90;;;1.50;;
35243;SDS011;37916;52.160;21.066;2024-03-29T05:38:31;3.22;;;1.27;;
35243;SDS011;37916;52.160;21.066;2024-03-29T05:48:32;3.33;;;1.10;;
35243;SDS011;37916;52.160;21.066;2024-03-29T05:58:36;7.15;;;1.30;;
35243;SDS011;37916;52.160;21.066;2024-03-29T06:08:37;3.53;;;1.17;;
35243;SDS011;37916;52.160;21.066;2024-03-29T06:18:39;2.53;;;1.30;;
35243;SDS011;37916;52.160;21.066;2024-03-29T06:28:40;1.85;;;1.30;;
35243;SDS011;37916;52.160;21.066;2024-03-29T06:38:41;4.00;;;1.20;;
35243;SDS011;37916;52.160;21.066;2024-03-29T06:48:42;2.60;;;1.23;;
35243;SDS011;37916;52.160;21.066;2024-03-29T06:58:43;2.70;;;1.15;;
35243;SDS011;37916;52.160;21.066;2024-03-29T07:08:44;4.28;;;1.48;;
35243;SDS011;37916;52.160;21.066;2024-03-29T07:49:19;2.08;;;1.00;;
35243;SDS011;37916;52.160;21.066;2024-03-29T07:59:22;2.28;;;1.10;;
35243;SDS011;37916;52.160;21.066;2024-03-29T08:09:23;2.87;;;0.90;;
35243;SDS011;37916;52.160;21.066;2024-03-29T08:19:25;1.75;;;1.00;;
35243;SDS011;37916;52.160;21.066;2024-03-29T08:29:26;3.40;;;1.20;;
35243;SDS011;37916;52.160;21.066;2024-03-29T08:39:29;2.33;;;0.80;;
35243;SDS011;37916;52.160;21.066;2024-03-29T08:49:31;2.30;;;1.00;;
35243;SDS011;37916;52.160;21.066;2024-03-29T08:59:32;2.40;;;0.60;;
35243;SDS011;37916;52.160;21.066;2024-03-29T09:09:33;2.13;;;0.90;;
35243;SDS011;37916;52.160;21.066;2024-03-29T09:19:34;1.15;;;0.80;;
35243;SDS011;37916;52.160;21.066;2024-03-29T09:29:35;2.75;;;0.77;;
35243;SDS011;37916;52.160;21.066;2024-03-29T09:39:36;1.92;;;0.65;;
35243;SDS011;37916;52.160;21.066;2024-03-29T09:49:37;2.55;;;1.00;;
35243;SDS011;37916;52.160;21.066;2024-03-29T09:59:38;2.22;;;0.90;;
35243;SDS011;37916;52.160;21.066;2024-03-29T10:09:39;2.63;;;0.90;;
35243;SDS011;37916;52.160;21.066;2024-03-29T10:19:41;4.10;;;1.40;;
35243;SDS011;37916;52.160;21.066;2024-03-29T10:29:43;3.22;;;1.00;;
35243;SDS011;37916;52.160;21.066;2024-03-29T10:39:44;1.48;;;0.70;;
35243;SDS011;37916;52.160;21.066;2024-03-29T10:49:46;2.00;;;1.05;;
35243;SDS011;37916;52.160;21.066;2024-03-29T11:10:10;2.17;;;0.82;;
35243;SDS011;37916;52.160;21.066;2024-03-29T11:20:13;2.30;;;0.70;;
35243;SDS011;37916;52.160;21.066;2024-03-29T11:30:18;3.35;;;0.82;;
35243;SDS011;37916;52.160;21.066;2024-03-29T11:40:19;1.42;;;0.60;;
35243;SDS011;37916;52.160;21.066;2024-03-29T11:50:20;2.15;;;0.55;;
35243;SDS011;37916;52.160;21.066;2024-03-29T12:00:21;1.67;;;0.60;;
35243;SDS011;37916;52.160;21.066;2024-03-29T12:10:29;1.00;;;0.47;;
35243;SDS011;37916;52.160;21.066;2024-03-29T12:20:31;1.83;;;0.75;;
35243;SDS011;37916;52.160;21.066;2024-03-29T12:30:32;2.83;;;0.70;;
35243;SDS011;37916;52.160;21.066;2024-03-29T12:40:33;2.85;;;0.68;;
35243;SDS011;37916;52.160;21.066;2024-03-29T12:50:41;2.08;;;0.50;;
35243;SDS011;37916;52.160;21.066;2024-03-29T13:00:43;1.70;;;0.50;;
35243;SDS011;37916;52.160;21.066;2024-03-29T13:10:44;3.60;;;0.75;;
35243;SDS011;37916;52.160;21.066;2024-03-29T13:21:18;2.67;;;0.65;;
35243;SDS011;37916;52.160;21.066;2024-03-29T13:31:20;1.42;;;0.43;;
35243;SDS011;37916;52.160;21.066;2024-03-29T13:41:23;1.67;;;0.40;;
35243;SDS011;37916;52.160;21.066;2024-03-29T13:51:27;2.03;;;0.60;;
35243;SDS011;37916;52.160;21.066;2024-03-29T14:01:32;2.13;;;0.50;;
35243;SDS011;37916;52.160;21.066;2024-03-29T14:11:34;2.97;;;0.50;;
35243;SDS011;37916;52.160;21.066;2024-03-29T14:21:35;1.83;;;0.43;;
35243;SDS011;37916;52.160;21.066;2024-03-29T14:31:37;4.35;;;0.75;;
35243;SDS011;37916;52.160;21.066;2024-03-29T14:41:38;2.35;;;0.63;;
35243;SDS011;37916;52.160;21.066;2024-03-29T14:51:40;6.47;;;0.80;;
35243;SDS011;37916;52.160;21.066;2024-03-29T15:01:41;2.53;;;0.40;;
35243;SDS011;37916;52.160;21.066;2024-03-29T15:11:42;1.40;;;0.40;;
35243;SDS011;37916;52.160;21.066;2024-03-29T15:21:43;2.13;;;0.60;;
35243;SDS011;37916;52.160;21.066;2024-03-29T15:31:45;3.45;;;0.90;;
35243;SDS011;37916;52.160;21.066;2024-03-29T15:41:47;1.90;;;0.50;;
35243;SDS011;37916;52.160;21.066;2024-03-29T15:51:48;3.20;;;0.77;;
35243;SDS011;37916;52.160;21.066;2024-03-29T16:01:49;1.90;;;0.60;;
35243;SDS011;37916;52.160;21.066;2024-03-29T16:11:50;2.75;;;0.80;;
35243;SDS011;37916;52.160;21.066;2024-03-29T16:21:51;3.53;;;0.73;;
35243;SDS011;37916;52.160;21.066;2024-03-29T16:31:52;4.38;;;0.70;;
35243;SDS011;37916;52.160;21.066;2024-03-29T16:41:54;3.08;;;1.10;;
35243;SDS011;37916;52.160;21.066;2024-03-29T16:51:56;3.83;;;1.00;;
35243;SDS011;37916;52.160;21.066;2024-03-29T17:01:58;2.83;;;0.90;;
35243;SDS011;37916;52.160;21.066;2024-03-29T17:11:59;4.00;;;1.48;;
35243;SDS011;37916;52.160;21.066;2024-03-29T17:22:00;6.05;;;1.50;;
35243;SDS011;37916;52.160;21.066;2024-03-29T17:32:01;3.88;;;1.40;;
35243;SDS011;37916;52.160;21.066;2024-03-29T17:42:03;5.55;;;1.40;;
35243;SDS011;37916;52.160;21.066;2024-03-29T17:52:10;5.80;;;1.85;;
35243;SDS011;37916;52.160;21.066;2024-03-29T19:34:31;14.82;;;5.95;;
35243;SDS011;37916;52.160;21.066;2024-03-29T19:55:02;18.92;;;10.57;;
35243;SDS011;37916;52.160;21.066;2024-03-29T20:05:06;20.58;;;10.52;;
35243;SDS011;37916;52.160;21.066;2024-03-29T20:35:47;17.50;;;9.18;;
35243;SDS011;37916;52.160;21.066;2024-03-29T20:45:59;13.38;;;8.75;;
35243;SDS011;37916;52.160;21.066;2024-03-29T20:56:03;18.40;;;9.15;;
35243;SDS011;37916;52.160;21.066;2024-03-29T21:06:10;19.80;;;8.80;;
